sensor_id;sensor_type;location;lat;lon;timestamp;pressure;altitude;pressure_sealevel;temperature;humidity
45793;BME280;31495;42.740;22.908;2023-02-21T00:00:27;93595.41;;;0.75;68.15
45793;BME280;31495;42.740;22.908;2023-02-21T00:01:46;93594.72;;;0.83;67.98
45793;BME280;31495;42.740;22.908;2023-02-21T00:03:04;93589.22;;;0.87;67.84
45793;BME280;31495;42.740;22.908;2023-02-21T00:04:22;93574.66;;;0.70;67.69
45793;BME280;31495;42.740;22.908;2023-02-21T00:05:41;93576.25;;;0.81;67.85
45793;BME280;31495;42.740;22.908;2023-02-21T00:06:59;93593.66;;;0.85;67.96
45793;BME280;31495;42.740;22.908;2023-02-21T00:08:17;93590.66;;;0.90;67.44
45793;BME280;31495;42.740;22.908;2023-02-21T00:09:38;93591.50;;;0.90;67.20
45793;BME280;31495;42.740;22.908;2023-02-21T00:10:56;93596.69;;;0.99;67.63
45793;BME280;31495;42.740;22.908;2023-02-21T00:12:14;93594.28;;;0.97;67.52
45793;BME280;31495;42.740;22.908;2023-02-21T00:13:36;93579.44;;;0.83;67.41
45793;BME280;31495;42.740;22.908;2023-02-21T00:14:55;93601.09;;;0.97;67.54
45793;BME280;31495;42.740;22.908;2023-02-21T00:16:15;93572.88;;;0.80;67.47
45793;BME280;31495;42.740;22.908;2023-02-21T00:17:34;93589.97;;;0.98;67.28
45793;BME280;31495;42.740;22.908;2023-02-21T00:18:52;93598.56;;;0.97;67.29
45793;BME280;31495;42.740;22.908;2023-02-21T00:20:11;93566.06;;;0.81;67.05
45793;BME280;31495;42.740;22.908;2023-02-21T00:21:29;93592.38;;;0.99;66.82
45793;BME280;31495;42.740;22.908;2023-02-21T00:22:48;93551.06;;;0.68;66.98
45793;BME280;31495;42.740;22.908;2023-02-21T00:24:07;93570.75;;;0.76;67.39
45793;BME280;31495;42.740;22.908;2023-02-21T00:25:29;93588.16;;;0.80;67.35
45793;BME280;31495;42.740;22.908;2023-02-21T00:26:47;93572.50;;;0.75;67.40
45793;BME280;31495;42.740;22.908;2023-02-21T00:28:06;93583.19;;;0.79;67.12
45793;BME280;31495;42.740;22.908;2023-02-21T00:29:25;93594.03;;;0.90;67.14
45793;BME280;31495;42.740;22.908;2023-02-21T00:30:43;93593.34;;;0.88;67.21
45793;BME280;31495;42.740;22.908;2023-02-21T00:32:01;93565.94;;;0.72;67.41
45793;BME280;31495;42.740;22.908;2023-02-21T00:33:20;93560.34;;;0.69;67.57
45793;BME280;31495;42.740;22.908;2023-02-21T00:34:38;93558.44;;;0.71;67.83
45793;BME280;31495;42.740;22.908;2023-02-21T00:35:56;93573.13;;;0.87;67.71
45793;BME280;31495;42.740;22.908;2023-02-21T00:37:14;93551.81;;;0.88;67.94
45793;BME280;31495;42.740;22.908;2023-02-21T00:38:36;93554.47;;;0.86;68.39
45793;BME280;31495;42.740;22.908;2023-02-21T00:39:54;93576.72;;;0.94;67.98
45793;BME280;31495;42.740;22.908;2023-02-21T00:41:13;93561.59;;;0.83;68.52
45793;BME280;31495;42.740;22.908;2023-02-21T00:42:31;93582.47;;;0.96;68.30
45793;BME280;31495;42.740;22.908;2023-02-21T00:43:49;93558.53;;;0.79;68.10
45793;BME280;31495;42.740;22.908;2023-02-21T00:45:09;93549.38;;;0.86;68.00
45793;BME280;31495;42.740;22.908;2023-02-21T00:46:28;93529.88;;;0.77;68.13
45793;BME280;31495;42.740;22.908;2023-02-21T00:47:46;93543.13;;;0.81;68.31
45793;BME280;31495;42.740;22.908;2023-02-21T00:49:05;93562.50;;;0.91;67.70
45793;BME280;31495;42.740;22.908;2023-02-21T00:50:23;93530.81;;;0.76;67.04
45793;BME280;31495;42.740;22.908;2023-02-21T00:51:42;93546.84;;;0.86;67.39
45793;BME280;31495;42.740;22.908;2023-02-21T00:53:00;93557.59;;;0.80;67.86
45793;BME280;31495;42.740;22.908;2023-02-21T00:54:18;93562.03;;;0.78;68.14
45793;BME280;31495;42.740;22.908;2023-02-21T00:55:37;93540.38;;;0.64;68.20
45793;BME280;31495;42.740;22.908;2023-02-21T00:56:55;93551.88;;;0.68;68.24
45793;BME280;31495;42.740;22.908;2023-02-21T00:58:13;93549.88;;;0.62;68.78
45793;BME280;31495;42.740;22.908;2023-02-21T00:59:32;93531.78;;;0.65;68.76
45793;BME280;31495;42.740;22.908;2023-02-21T01:00:50;93538.59;;;0.75;68.31
45793;BME280;31495;42.740;22.908;2023-02-21T01:02:09;93531.47;;;0.78;68.62
45793;BME280;31495;42.740;22.908;2023-02-21T01:03:27;93467.91;;;0.49;68.17
45793;BME280;31495;42.740;22.908;2023-02-21T01:04:45;93503.06;;;0.73;68.34
45793;BME280;31495;42.740;22.908;2023-02-21T01:06:08;93511.03;;;0.88;68.18
45793;BME280;31495;42.740;22.908;2023-02-21T01:07:27;93521.03;;;0.99;67.52
45793;BME280;31495;42.740;22.908;2023-02-21T01:08:46;93482.19;;;0.69;67.60
45793;BME280;31495;42.740;22.908;2023-02-21T01:10:04;93497.03;;;0.74;67.32
45793;BME280;31495;42.740;22.908;2023-02-21T01:11:23;93502.13;;;0.74;67.60
45793;BME280;31495;42.740;22.908;2023-02-21T01:12:41;93484.91;;;0.58;68.12
45793;BME280;31495;42.740;22.908;2023-02-21T01:13:59;93507.50;;;0.71;68.16
45793;BME280;31495;42.740;22.908;2023-02-21T01:15:18;93487.81;;;0.63;67.58
45793;BME280;31495;42.740;22.908;2023-02-21T01:16:36;93501.22;;;0.65;67.42
45793;BME280;31495;42.740;22.908;2023-02-21T01:17:55;93520.75;;;0.75;67.53
45793;BME280;31495;42.740;22.908;2023-02-21T01:19:13;93499.63;;;0.64;67.58
45793;BME280;31495;42.740;22.908;2023-02-21T01:20:32;93510.84;;;0.71;67.68
45793;BME280;31495;42.740;22.908;2023-02-21T01:21:50;93513.63;;;0.78;68.01
45793;BME280;31495;42.740;22.908;2023-02-21T01:23:08;93512.34;;;0.64;67.80
45793;BME280;31495;42.740;22.908;2023-02-21T01:24:27;93489.84;;;0.60;67.80
45793;BME280;31495;42.740;22.908;2023-02-21T01:25:45;93495.88;;;0.59;67.96
45793;BME280;31495;42.740;22.908;2023-02-21T01:27:04;93507.75;;;0.78;68.18
45793;BME280;31495;42.740;22.908;2023-02-21T01:28:22;93489.81;;;0.69;68.07
45793;BME280;31495;42.740;22.908;2023-02-21T01:29:40;93502.47;;;0.89;68.29
45793;BME280;31495;42.740;22.908;2023-02-21T01:30:58;93493.03;;;0.71;68.43
45793;BME280;31495;42.740;22.908;2023-02-21T01:32:17;93487.69;;;0.65;68.56
45793;BME280;31495;42.740;22.908;2023-02-21T01:33:38;93500.75;;;0.80;68.69
45793;BME280;31495;42.740;22.908;2023-02-21T01:34:56;93486.72;;;0.76;68.60
45793;BME280;31495;42.740;22.908;2023-02-21T01:36:15;93473.09;;;0.57;68.80
45793;BME280;31495;42.740;22.908;2023-02-21T01:37:33;93500.75;;;0.80;68.84
45793;BME280;31495;42.740;22.908;2023-02-21T01:38:51;93499.00;;;0.80;68.74
45793;BME280;31495;42.740;22.908;2023-02-21T01:40:14;93474.44;;;0.61;69.00
45793;BME280;31495;42.740;22.908;2023-02-21T01:41:32;93469.59;;;0.68;68.95
45793;BME280;31495;42.740;22.908;2023-02-21T01:42:50;93483.84;;;0.79;68.97
45793;BME280;31495;42.740;22.908;2023-02-21T01:44:36;93483.53;;;0.91;68.66
45793;BME280;31495;42.740;22.908;2023-02-21T01:45:54;93462.03;;;0.76;68.74
45793;BME280;31495;42.740;22.908;2023-02-21T01:47:12;93478.28;;;0.93;68.79
45793;BME280;31495;42.740;22.908;2023-02-21T01:48:31;93477.59;;;1.01;68.86
45793;BME280;31495;42.740;22.908;2023-02-21T01:49:50;93480.00;;;1.02;68.56
45793;BME280;31495;42.740;22.908;2023-02-21T01:51:11;93461.84;;;0.87;68.66
45793;BME280;31495;42.740;22.908;2023-02-21T01:52:31;93456.38;;;0.82;68.34
45793;BME280;31495;42.740;22.908;2023-02-21T01:53:49;93483.06;;;1.06;67.74
45793;BME280;31495;42.740;22.908;2023-02-21T01:55:09;93418.78;;;0.66;67.75
45793;BME280;31495;42.740;22.908;2023-02-21T01:56:29;93475.84;;;1.01;67.82
45793;BME280;31495;42.740;22.908;2023-02-21T01:58:10;93479.41;;;0.90;68.16
45793;BME280;31495;42.740;22.908;2023-02-21T01:59:29;93465.50;;;0.75;68.20
45793;BME280;31495;42.740;22.908;2023-02-21T02:00:48;93448.09;;;0.70;68.13
45793;BME280;31495;42.740;22.908;2023-02-21T02:02:16;93465.38;;;0.77;68.14
45793;BME280;31495;42.740;22.908;2023-02-21T02:03:36;93481.41;;;0.87;68.23
45793;BME280;31495;42.740;22.908;2023-02-21T02:04:56;93458.66;;;0.85;68.00
45793;BME280;31495;42.740;22.908;2023-02-21T02:06:16;93455.13;;;0.86;68.33
45793;BME280;31495;42.740;22.908;2023-02-21T02:07:35;93429.25;;;0.63;68.45
45793;BME280;31495;42.740;22.908;2023-02-21T02:08:54;93464.31;;;0.79;68.92
45793;BME280;31495;42.740;22.908;2023-02-21T02:10:13;93449.22;;;0.68;68.84
45793;BME280;31495;42.740;22.908;2023-02-21T02:14:28;93445.97;;;0.76;68.37
45793;BME280;31495;42.740;22.908;2023-02-21T02:16:48;93455.69;;;0.80;68.39
45793;BME280;31495;42.740;22.908;2023-02-21T02:18:17;93461.09;;;0.77;68.79
45793;BME280;31495;42.740;22.908;2023-02-21T02:22:06;93461.91;;;0.78;68.79
45793;BME280;31495;42.740;22.908;2023-02-21T02:29:06;93467.34;;;0.83;69.19
45793;BME280;31495;42.740;22.908;2023-02-21T02:34:46;93460.50;;;0.83;69.41
45793;BME280;31495;42.740;22.908;2023-02-21T02:35:55;93459.63;;;0.75;69.40
45793;BME280;31495;42.740;22.908;2023-02-21T02:40:00;93462.97;;;0.75;69.43
45793;BME280;31495;42.740;22.908;2023-02-21T02:41:21;93468.34;;;0.72;69.36
45793;BME280;31495;42.740;22.908;2023-02-21T02:43:32;93456.81;;;0.78;69.37
45793;BME280;31495;42.740;22.908;2023-02-21T02:44:38;93432.09;;;0.60;69.35
45793;BME280;31495;42.740;22.908;2023-02-21T02:46:51;93441.19;;;0.63;69.36
45793;BME280;31495;42.740;22.908;2023-02-21T02:47:58;93446.00;;;0.66;69.43
45793;BME280;31495;42.740;22.908;2023-02-21T02:50:06;93428.69;;;0.42;69.88
45793;BME280;31495;42.740;22.908;2023-02-21T02:51:11;93437.09;;;0.52;69.82
45793;BME280;31495;42.740;22.908;2023-02-21T02:52:11;93451.38;;;0.63;69.84
45793;BME280;31495;42.740;22.908;2023-02-21T02:53:10;93453.84;;;0.54;69.74
45793;BME280;31495;42.740;22.908;2023-02-21T02:54:10;93442.22;;;0.42;70.37
45793;BME280;31495;42.740;22.908;2023-02-21T02:56:27;93447.03;;;0.45;70.48
45793;BME280;31495;42.740;22.908;2023-02-21T02:57:29;93457.16;;;0.55;70.70
45793;BME280;31495;42.740;22.908;2023-02-21T02:59:44;93445.78;;;0.59;70.54
45793;BME280;31495;42.740;22.908;2023-02-21T03:01:39;93462.88;;;0.67;70.21
45793;BME280;31495;42.740;22.908;2023-02-21T03:02:47;93432.41;;;0.47;70.17
45793;BME280;31495;42.740;22.908;2023-02-21T03:04:11;93454.91;;;0.52;70.42
45793;BME280;31495;42.740;22.908;2023-02-21T03:05:47;93450.78;;;0.51;70.57
45793;BME280;31495;42.740;22.908;2023-02-21T03:09:28;93456.94;;;0.48;70.43
45793;BME280;31495;42.740;22.908;2023-02-21T03:10:41;93445.06;;;0.29;70.39
45793;BME280;31495;42.740;22.908;2023-02-21T03:11:58;93445.22;;;0.28;70.29
45793;BME280;31495;42.740;22.908;2023-02-21T03:13:09;93462.34;;;0.35;69.95
45793;BME280;31495;42.740;22.908;2023-02-21T03:14:15;93402.47;;;0.04;69.97
45793;BME280;31495;42.740;22.908;2023-02-21T03:17:38;93447.69;;;0.10;70.58
45793;BME280;31495;42.740;22.908;2023-02-21T03:18:47;93441.13;;;0.17;70.56
45793;BME280;31495;42.740;22.908;2023-02-21T03:19:47;93445.66;;;0.23;70.47
45793;BME280;31495;42.740;22.908;2023-02-21T03:20:53;93461.94;;;0.40;70.03
45793;BME280;31495;42.740;22.908;2023-02-21T03:22:06;93462.53;;;0.52;70.06
45793;BME280;31495;42.740;22.908;2023-02-21T03:23:08;93457.22;;;0.45;69.82
45793;BME280;31495;42.740;22.908;2023-02-21T03:24:10;93459.75;;;0.45;70.06
45793;BME280;31495;42.740;22.908;2023-02-21T03:25:12;93463.31;;;0.34;70.30
45793;BME280;31495;42.740;22.908;2023-02-21T03:26:15;93449.78;;;0.24;70.45
45793;BME280;31495;42.740;22.908;2023-02-21T03:27:17;93461.81;;;0.32;70.52
45793;BME280;31495;42.740;22.908;2023-02-21T03:28:19;93435.63;;;0.12;70.46
45793;BME280;31495;42.740;22.908;2023-02-21T03:29:19;93420.78;;;0.07;70.26
45793;BME280;31495;42.740;22.908;2023-02-21T03:30:19;93447.09;;;0.26;70.11
45793;BME280;31495;42.740;22.908;2023-02-21T03:31:25;93451.25;;;0.27;70.31
45793;BME280;31495;42.740;22.908;2023-02-21T03:32:32;93460.22;;;0.31;70.39
45793;BME280;31495;42.740;22.908;2023-02-21T03:33:32;93452.31;;;0.24;70.52
45793;BME280;31495;42.740;22.908;2023-02-21T03:34:32;93454.03;;;0.33;70.19
45793;BME280;31495;42.740;22.908;2023-02-21T03:35:32;93456.31;;;0.36;70.39
45793;BME280;31495;42.740;22.908;2023-02-21T03:36:32;93449.75;;;0.34;69.77
45793;BME280;31495;42.740;22.908;2023-02-21T03:37:38;93440.53;;;0.33;69.62
45793;BME280;31495;42.740;22.908;2023-02-21T03:38:38;93455.75;;;0.43;69.86
45793;BME280;31495;42.740;22.908;2023-02-21T03:39:37;93446.03;;;0.28;70.02
45793;BME280;31495;42.740;22.908;2023-02-21T03:40:37;93455.66;;;0.34;70.02
45793;BME280;31495;42.740;22.908;2023-02-21T03:41:36;93441.47;;;0.32;70.11
45793;BME280;31495;42.740;22.908;2023-02-21T03:42:36;93429.44;;;0.24;70.26
45793;BME280;31495;42.740;22.908;2023-02-21T03:43:35;93420.78;;;0.07;70.43
45793;BME280;31495;42.740;22.908;2023-02-21T03:44:34;93446.84;;;0.19;70.63
45793;BME280;31495;42.740;22.908;2023-02-21T03:45:35;93462.88;;;0.29;70.39
45793;BME280;31495;42.740;22.908;2023-02-21T03:46:35;93413.31;;;-0.04;70.42
45793;BME280;31495;42.740;22.908;2023-02-21T03:47:34;93446.06;;;0.18;69.99
45793;BME280;31495;42.740;22.908;2023-02-21T03:48:34;93457.56;;;0.23;70.23
45793;BME280;31495;42.740;22.908;2023-02-21T03:49:34;93462.38;;;0.26;70.39
45793;BME280;31495;42.740;22.908;2023-02-21T03:50:34;93416.28;;;-0.09;70.53
45793;BME280;31495;42.740;22.908;2023-02-21T03:51:33;93448.50;;;0.10;70.49
45793;BME280;31495;42.740;22.908;2023-02-21T03:52:33;93447.44;;;0.03;70.96
45793;BME280;31495;42.740;22.908;2023-02-21T03:53:32;93466.31;;;0.10;70.94
45793;BME280;31495;42.740;22.908;2023-02-21T03:54:31;93424.03;;;-0.10;70.77
45793;BME280;31495;42.740;22.908;2023-02-21T03:55:32;93462.91;;;0.20;70.60
45793;BME280;31495;42.740;22.908;2023-02-21T03:56:32;93451.84;;;0.11;70.10
45793;BME280;31495;42.740;22.908;2023-02-21T03:57:31;93455.31;;;0.10;69.94
45793;BME280;31495;42.740;22.908;2023-02-21T03:58:31;93461.75;;;0.14;69.78
45793;BME280;31495;42.740;22.908;2023-02-21T03:59:30;93447.16;;;0.06;69.72
45793;BME280;31495;42.740;22.908;2023-02-21T04:00:29;93414.56;;;-0.18;69.96
45793;BME280;31495;42.740;22.908;2023-02-21T04:01:29;93451.31;;;0.07;70.01
45793;BME280;31495;42.740;22.908;2023-02-21T04:02:28;93452.63;;;0.11;70.03
45793;BME280;31495;42.740;22.908;2023-02-21T04:03:28;93444.88;;;0.03;69.93
45793;BME280;31495;42.740;22.908;2023-02-21T04:04:27;93447.69;;;0.10;69.81
45793;BME280;31495;42.740;22.908;2023-02-21T04:05:27;93438.06;;;0.04;69.68
45793;BME280;31495;42.740;22.908;2023-02-21T04:06:26;93465.91;;;0.15;69.97
45793;BME280;31495;42.740;22.908;2023-02-21T04:07:26;93467.25;;;0.09;69.75
45793;BME280;31495;42.740;22.908;2023-02-21T04:08:25;93458.84;;;-0.01;69.67
45793;BME280;31495;42.740;22.908;2023-02-21T04:09:25;93452.84;;;-0.10;69.62
45793;BME280;31495;42.740;22.908;2023-02-21T04:10:24;93468.34;;;-0.03;69.49
45793;BME280;31495;42.740;22.908;2023-02-21T04:11:24;93469.69;;;-0.09;69.73
45793;BME280;31495;42.740;22.908;2023-02-21T04:12:24;93476.91;;;-0.04;69.81
45793;BME280;31495;42.740;22.908;2023-02-21T04:13:23;93470.34;;;-0.07;69.85
45793;BME280;31495;42.740;22.908;2023-02-21T04:14:23;93465.69;;;-0.11;70.03
45793;BME280;31495;42.740;22.908;2023-02-21T04:15:22;93480.13;;;-0.02;70.24
45793;BME280;31495;42.740;22.908;2023-02-21T04:16:22;93479.19;;;-0.01;70.52
45793;BME280;31495;42.740;22.908;2023-02-21T04:17:22;93473.31;;;-0.02;70.37
45793;BME280;31495;42.740;22.908;2023-02-21T04:18:21;93474.63;;;-0.07;70.70
45793;BME280;31495;42.740;22.908;2023-02-21T04:19:20;93468.63;;;-0.16;70.14
45793;BME280;31495;42.740;22.908;2023-02-21T04:20:20;93480.66;;;-0.08;69.95
45793;BME280;31495;42.740;22.908;2023-02-21T04:21:19;93465.97;;;-0.14;69.77
45793;BME280;31495;42.740;22.908;2023-02-21T04:22:19;93468.50;;;-0.14;69.72
45793;BME280;31495;42.740;22.908;2023-02-21T04:23:19;93469.81;;;-0.10;69.51
45793;BME280;31495;42.740;22.908;2023-02-21T04:24:19;93482.28;;;-0.07;69.28
45793;BME280;31495;42.740;22.908;2023-02-21T04:25:18;93489.25;;;-0.09;69.22
45793;BME280;31495;42.740;22.908;2023-02-21T04:26:18;93481.88;;;-0.12;69.30
45793;BME280;31495;42.740;22.908;2023-02-21T04:27:18;93480.66;;;-0.08;69.34
45793;BME280;31495;42.740;22.908;2023-02-21T04:28:17;93479.34;;;-0.12;69.57
45793;BME280;31495;42.740;22.908;2023-02-21T04:29:17;93465.84;;;-0.23;69.51
45793;BME280;31495;42.740;22.908;2023-02-21T04:30:17;93456.34;;;-0.30;69.05
45793;BME280;31495;42.740;22.908;2023-02-21T04:31:17;93471.44;;;-0.19;69.17
45793;BME280;31495;42.740;22.908;2023-02-21T04:32:16;93468.66;;;-0.26;69.19
45793;BME280;31495;42.740;22.908;2023-02-21T04:33:17;93460.50;;;-0.39;69.45
45793;BME280;31495;42.740;22.908;2023-02-21T04:34:16;93477.22;;;-0.37;69.57
45793;BME280;31495;42.740;22.908;2023-02-21T04:35:16;93458.50;;;-0.45;69.41
45793;BME280;31495;42.740;22.908;2023-02-21T04:36:15;93489.00;;;-0.26;69.08
45793;BME280;31495;42.740;22.908;2023-02-21T04:37:15;93484.97;;;-0.28;69.18
45793;BME280;31495;42.740;22.908;2023-02-21T04:38:14;93481.25;;;-0.34;69.37
45793;BME280;31495;42.740;22.908;2023-02-21T04:39:14;93472.53;;;-0.41;68.98
45793;BME280;31495;42.740;22.908;2023-02-21T04:40:13;93445.41;;;-0.60;69.17
45793;BME280;31495;42.740;22.908;2023-02-21T04:41:13;93479.50;;;-0.43;69.38
45793;BME280;31495;42.740;22.908;2023-02-21T04:42:12;93492.22;;;-0.33;69.35
45793;BME280;31495;42.740;22.908;2023-02-21T04:43:12;93461.72;;;-0.53;69.48
45793;BME280;31495;42.740;22.908;2023-02-21T04:44:11;93485.09;;;-0.40;69.59
45793;BME280;31495;42.740;22.908;2023-02-21T04:45:11;93490.31;;;-0.31;69.53
45793;BME280;31495;42.740;22.908;2023-02-21T04:46:16;93499.69;;;-0.32;69.54
45793;BME280;31495;42.740;22.908;2023-02-21T04:47:16;93487.13;;;-0.43;69.30
45793;BME280;31495;42.740;22.908;2023-02-21T04:48:15;93495.97;;;-0.47;69.65
45793;BME280;31495;42.740;22.908;2023-02-21T04:49:16;93496.38;;;-0.42;69.70
45793;BME280;31495;42.740;22.908;2023-02-21T04:50:15;93474.16;;;-0.60;69.52
45793;BME280;31495;42.740;22.908;2023-02-21T04:51:16;93485.81;;;-0.47;69.67
45793;BME280;31495;42.740;22.908;2023-02-21T04:52:16;93495.84;;;-0.46;69.38
45793;BME280;31495;42.740;22.908;2023-02-21T04:53:18;93474.28;;;-0.71;69.61
45793;BME280;31495;42.740;22.908;2023-02-21T04:54:17;93473.47;;;-0.71;69.96
45793;BME280;31495;42.740;22.908;2023-02-21T04:55:17;93468.25;;;-0.80;69.74
45793;BME280;31495;42.740;22.908;2023-02-21T04:56:18;93452.09;;;-0.88;69.26
45793;BME280;31495;42.740;22.908;2023-02-21T04:57:19;93471.88;;;-0.63;69.31
45793;BME280;31495;42.740;22.908;2023-02-21T04:58:18;93469.31;;;-0.72;69.76
45793;BME280;31495;42.740;22.908;2023-02-21T04:59:18;93471.06;;;-0.73;69.88
45793;BME280;31495;42.740;22.908;2023-02-21T05:00:17;93478.16;;;-0.67;69.84
45793;BME280;31495;42.740;22.908;2023-02-21T05:01:18;93482.31;;;-0.66;69.74
45793;BME280;31495;42.740;22.908;2023-02-21T05:02:18;93446.03;;;-0.97;69.64
45793;BME280;31495;42.740;22.908;2023-02-21T05:03:17;93473.34;;;-0.80;69.51
45793;BME280;31495;42.740;22.908;2023-02-21T05:04:17;93482.28;;;-0.76;69.99
45793;BME280;31495;42.740;22.908;2023-02-21T05:05:17;93471.22;;;-0.65;69.63
45793;BME280;31495;42.740;22.908;2023-02-21T05:06:18;93482.31;;;-0.66;69.88
45793;BME280;31495;42.740;22.908;2023-02-21T05:07:18;93468.13;;;-0.68;69.75
45793;BME280;31495;42.740;22.908;2023-02-21T05:08:17;93478.84;;;-0.65;69.62
45793;BME280;31495;42.740;22.908;2023-02-21T05:09:17;93473.75;;;-0.65;69.36
45793;BME280;31495;42.740;22.908;2023-02-21T05:10:17;93476.81;;;-0.61;69.28
45793;BME280;31495;42.740;22.908;2023-02-21T05:11:17;93479.22;;;-0.60;68.95
45793;BME280;31495;42.740;22.908;2023-02-21T05:12:17;93464.94;;;-0.70;69.03
45793;BME280;31495;42.740;22.908;2023-02-21T05:13:17;93394.84;;;-1.12;68.93
45793;BME280;31495;42.740;22.908;2023-02-21T05:14:16;93473.50;;;-0.62;69.42
45793;BME280;31495;42.740;22.908;2023-02-21T05:15:16;93470.28;;;-0.64;69.54
45793;BME280;31495;42.740;22.908;2023-02-21T05:16:17;93462.53;;;-0.72;69.56
45793;BME280;31495;42.740;22.908;2023-02-21T05:17:17;93467.75;;;-0.64;69.52
45793;BME280;31495;42.740;22.908;2023-02-21T05:18:17;93446.59;;;-0.84;69.20
45793;BME280;31495;42.740;22.908;2023-02-21T05:19:21;93449.94;;;-0.93;68.98
45793;BME280;31495;42.740;22.908;2023-02-21T05:20:25;93443.09;;;-1.02;69.48
45793;BME280;31495;42.740;22.908;2023-02-21T05:21:24;93458.88;;;-0.89;69.45
45793;BME280;31495;42.740;22.908;2023-02-21T05:22:24;93431.47;;;-1.05;69.15
45793;BME280;31495;42.740;22.908;2023-02-21T05:23:24;93445.63;;;-1.02;69.27
45793;BME280;31495;42.740;22.908;2023-02-21T05:24:33;93459.44;;;-0.95;69.61
45793;BME280;31495;42.740;22.908;2023-02-21T05:25:32;93455.41;;;-0.98;69.69
45793;BME280;31495;42.740;22.908;2023-02-21T05:26:34;93460.22;;;-0.95;69.98
45793;BME280;31495;42.740;22.908;2023-02-21T05:27:34;93471.06;;;-0.93;70.10
45793;BME280;31495;42.740;22.908;2023-02-21T05:28:34;93471.31;;;-0.86;69.88
45793;BME280;31495;42.740;22.908;2023-02-21T05:29:34;93456.47;;;-0.90;69.99
45793;BME280;31495;42.740;22.908;2023-02-21T05:30:33;93467.72;;;-0.83;70.16
45793;BME280;31495;42.740;22.908;2023-02-21T05:31:33;93468.25;;;-0.80;70.26
45793;BME280;31495;42.740;22.908;2023-02-21T05:32:32;93465.44;;;-0.86;70.63
45793;BME280;31495;42.740;22.908;2023-02-21T05:33:32;93471.31;;;-0.86;69.86
45793;BME280;31495;42.740;22.908;2023-02-21T05:34:31;93450.97;;;-1.05;69.86
45793;BME280;31495;42.740;22.908;2023-02-21T05:35:30;93454.06;;;-0.92;69.67
45793;BME280;31495;42.740;22.908;2023-02-21T05:36:30;93426.25;;;-1.13;69.90
45793;BME280;31495;42.740;22.908;2023-02-21T05:37:29;93468.00;;;-0.86;69.83
45793;BME280;31495;42.740;22.908;2023-02-21T05:38:29;93474.81;;;-0.87;69.83
45793;BME280;31495;42.740;22.908;2023-02-21T05:39:28;93443.50;;;-0.97;69.67
45793;BME280;31495;42.740;22.908;2023-02-21T05:40:28;93469.44;;;-0.84;69.83
45793;BME280;31495;42.740;22.908;2023-02-21T05:41:27;93464.91;;;-0.90;70.02
45793;BME280;31495;42.740;22.908;2023-02-21T05:42:26;93455.00;;;-1.03;70.24
45793;BME280;31495;42.740;22.908;2023-02-21T05:43:26;93470.41;;;-0.85;69.87
45793;BME280;31495;42.740;22.908;2023-02-21T05:44:25;93459.28;;;-0.94;69.83
45793;BME280;31495;42.740;22.908;2023-02-21T05:45:25;93473.19;;;-0.88;69.75
45793;BME280;31495;42.740;22.908;2023-02-21T05:46:27;93486.72;;;-0.78;69.29
45793;BME280;31495;42.740;22.908;2023-02-21T05:47:27;93492.19;;;-0.72;69.41
45793;BME280;31495;42.740;22.908;2023-02-21T05:48:26;93459.97;;;-0.91;69.36
45793;BME280;31495;42.740;22.908;2023-02-21T05:49:26;93476.16;;;-0.83;69.45
45793;BME280;31495;42.740;22.908;2023-02-21T05:50:26;93477.75;;;-0.82;69.60
45793;BME280;31495;42.740;22.908;2023-02-21T05:51:25;93487.00;;;-0.61;69.48
45793;BME280;31495;42.740;22.908;2023-02-21T05:52:25;93486.19;;;-0.62;69.55
45793;BME280;31495;42.740;22.908;2023-02-21T05:53:24;93490.06;;;-0.67;69.40
45793;BME280;31495;42.740;22.908;2023-02-21T05:54:24;93487.50;;;-0.67;69.94
45793;BME280;31495;42.740;22.908;2023-02-21T05:55:23;93466.00;;;-0.73;69.90
45793;BME280;31495;42.740;22.908;2023-02-21T05:56:23;93470.28;;;-0.64;69.62
45793;BME280;31495;42.740;22.908;2023-02-21T05:57:22;93482.16;;;-0.54;69.73
45793;BME280;31495;42.740;22.908;2023-02-21T05:58:21;93450.22;;;-0.67;69.50
45793;BME280;31495;42.740;22.908;2023-02-21T05:59:21;93465.59;;;-0.68;70.25
45793;BME280;31495;42.740;22.908;2023-02-21T06:00:24;93489.53;;;-0.51;70.22
45793;BME280;31495;42.740;22.908;2023-02-21T06:01:24;93485.25;;;-0.51;70.21
45793;BME280;31495;42.740;22.908;2023-02-21T06:02:24;93472.00;;;-0.54;70.33
45793;BME280;31495;42.740;22.908;2023-02-21T06:03:23;93492.47;;;-0.37;70.18
45793;BME280;31495;42.740;22.908;2023-02-21T06:04:23;93476.56;;;-0.39;70.03
45793;BME280;31495;42.740;22.908;2023-02-21T06:05:23;93454.59;;;-0.49;69.91
45793;BME280;31495;42.740;22.908;2023-02-21T06:06:22;93443.50;;;-0.48;69.81
45793;BME280;31495;42.740;22.908;2023-02-21T06:07:22;93474.81;;;-0.28;69.91
45793;BME280;31495;42.740;22.908;2023-02-21T06:08:21;93467.03;;;-0.27;69.59
45793;BME280;31495;42.740;22.908;2023-02-21T06:09:21;93487.63;;;-0.10;69.45
45793;BME280;31495;42.740;22.908;2023-02-21T06:10:20;93468.25;;;-0.21;69.79
45793;BME280;31495;42.740;22.908;2023-02-21T06:11:26;93488.44;;;0.00;69.74
45793;BME280;31495;42.740;22.908;2023-02-21T06:12:30;93482.28;;;-0.07;70.03
45793;BME280;31495;42.740;22.908;2023-02-21T06:13:29;93472.38;;;-0.10;69.99
45793;BME280;31495;42.740;22.908;2023-02-21T06:14:29;93491.25;;;-0.03;70.41
45793;BME280;31495;42.740;22.908;2023-02-21T06:15:28;93486.94;;;-0.03;70.10
45793;BME280;31495;42.740;22.908;2023-02-21T06:16:32;93491.09;;;0.08;69.76
45793;BME280;31495;42.740;22.908;2023-02-21T06:17:34;93483.75;;;0.05;69.47
45793;BME280;31495;42.740;22.908;2023-02-21T06:18:34;93475.56;;;0.02;69.49
45793;BME280;31495;42.740;22.908;2023-02-21T06:19:34;93488.25;;;0.11;69.30
45793;BME280;31495;42.740;22.908;2023-02-21T06:20:33;93482.63;;;0.17;69.36
45793;BME280;31495;42.740;22.908;2023-02-21T06:21:33;93473.81;;;0.12;69.46
45793;BME280;31495;42.740;22.908;2023-02-21T06:22:33;93476.34;;;0.12;69.50
45793;BME280;31495;42.740;22.908;2023-02-21T06:23:33;93494.81;;;0.24;69.76
45793;BME280;31495;42.740;22.908;2023-02-21T06:24:32;93476.59;;;0.18;69.58